createdAt,value
2023-02-15T00:01:15.722Z,98246.47
2023-02-15T00:03:42.208Z,98243.84
2023-02-15T00:06:08.637Z,98239.94
2023-02-15T00:08:35.145Z,98241.88
2023-02-15T00:11:09.329Z,98235.22
2023-02-15T00:13:37.116Z,98247.25
2023-02-15T00:16:06.022Z,98250.84
2023-02-15T00:18:32.905Z,98247.13
2023-02-15T00:21:03.150Z,98242.19
2023-02-15T00:23:29.598Z,98242.31
2023-02-15T00:26:06.111Z,98247.66
2023-02-15T00:28:32.659Z,98244.19
2023-02-15T00:31:07.565Z,98237.28
2023-02-15T00:33:34.160Z,98233.78
2023-02-15T00:36:02.204Z,98233.25
2023-02-15T00:38:29.742Z,98219.22
2023-02-15T00:40:57.830Z,98225.25
2023-02-15T00:43:25.368Z,98228.66
2023-02-15T00:45:51.968Z,98230.28
2023-02-15T00:48:19.084Z,98232.69
2023-02-15T00:50:54.234Z,98227.31
2023-02-15T00:53:21.689Z,98232.56
2023-02-15T00:55:48.460Z,98220.75
2023-02-15T00:58:15.541Z,98226.56
2023-02-15T01:00:44.718Z,98221.75
2023-02-15T01:03:12.255Z,98223.25
2023-02-15T01:05:41.056Z,98215.63
2023-02-15T01:08:07.729Z,98221.50
2023-02-15T01:10:35.989Z,98214.84
2023-02-15T01:13:02.572Z,98213.09
2023-02-15T01:15:29.166Z,98202.91
2023-02-15T01:17:56.375Z,98214.84
2023-02-15T01:20:28.797Z,98212.44
2023-02-15T01:22:55.668Z,98201.50
2023-02-15T01:25:24.229Z,98200.63
2023-02-15T01:27:50.634Z,98204.56
2023-02-15T01:30:17.273Z,98205.56
2023-02-15T01:32:44.061Z,98194.75
2023-02-15T01:35:11.551Z,98189.34
2023-02-15T01:37:38.125Z,98190.13
2023-02-15T01:40:07.479Z,98191.97
2023-02-15T01:42:33.864Z,98190.91
2023-02-15T01:45:03.908Z,98182.47
2023-02-15T01:47:39.501Z,98177.66
2023-02-15T01:50:13.352Z,98173.94
2023-02-15T01:52:44.832Z,98179.22
2023-02-15T01:55:13.574Z,98176.56
2023-02-15T01:57:40.751Z,98169.59
2023-02-15T02:00:09.167Z,98171.72
2023-02-15T02:02:36.503Z,98170.31
2023-02-15T02:05:07.379Z,98166.38
2023-02-15T02:07:39.133Z,98157.63
2023-02-15T02:10:07.139Z,98156.13
2023-02-15T02:12:35.298Z,98155.34
2023-02-15T02:15:09.440Z,98151.53
2023-02-15T02:17:51.090Z,98143.25
2023-02-15T02:20:26.340Z,98140.72
2023-02-15T02:23:11.505Z,98138.31
2023-02-15T02:26:15.446Z,98137.56
2023-02-15T02:29:19.582Z,98139.06
2023-02-15T02:32:15.007Z,98137.22
2023-02-15T02:35:09.958Z,98134.59
2023-02-15T02:38:09.483Z,98124.41
2023-02-15T02:40:58.602Z,98125.84
2023-02-15T02:43:39.397Z,98124.09
2023-02-15T02:46:33.292Z,98123.75
2023-02-15T02:48:59.795Z,98120.59
2023-02-15T02:51:26.198Z,98118.09
2023-02-15T02:53:58.224Z,98123.13
2023-02-15T02:56:43.434Z,98118.84
2023-02-15T02:59:30.509Z,98126.28
2023-02-15T03:02:01.395Z,98117.09
2023-02-15T03:04:33.919Z,98120.69
2023-02-15T03:07:15.638Z,98105.41
2023-02-15T03:09:49.808Z,98111.44
2023-02-15T03:12:27.784Z,98112.66
2023-02-15T03:15:03.776Z,98115.03
2023-02-15T03:17:34.610Z,98122.03
2023-02-15T03:20:30.586Z,98109.78
2023-02-15T03:23:07.305Z,98117.53
2023-02-15T03:25:37.196Z,98117.00
2023-02-15T03:28:08.269Z,98117.56
2023-02-15T03:30:36.113Z,98121.38
2023-02-15T03:33:05.314Z,98113.16
2023-02-15T03:35:40.086Z,98114.03
2023-02-15T03:38:10.156Z,98116.34
2023-02-15T03:41:02.104Z,98117.09
2023-02-15T03:43:41.351Z,98113.72
2023-02-15T03:46:12.830Z,98111.00
2023-02-15T03:48:42.782Z,98112.19
2023-02-15T03:51:33.996Z,98101.91
2023-02-15T03:54:14.789Z,98104.53
2023-02-15T03:57:03.155Z,98103.66
2023-02-15T03:59:48.328Z,98107.94
2023-02-15T04:02:27.418Z,98109.78
2023-02-15T04:04:53.784Z,98106.41
2023-02-15T04:07:20.210Z,98100.38
2023-02-15T04:10:05.069Z,98080.72
2023-02-15T04:12:31.915Z,98098.44
2023-02-15T04:15:16.926Z,98101.03
2023-02-15T04:17:43.254Z,98094.25
2023-02-15T04:20:28.682Z,98104.28
2023-02-15T04:23:14.554Z,98110.31
2023-02-15T04:25:40.968Z,98104.72
2023-02-15T04:28:08.689Z,98110.09
2023-02-15T04:30:35.382Z,98109.09
2023-02-15T04:33:01.797Z,98115.88
2023-02-15T04:35:28.404Z,98114.13
2023-02-15T04:37:54.849Z,98112.38
2023-02-15T04:40:23.356Z,98116.78
2023-02-15T04:42:50.165Z,98123.00
2023-02-15T04:45:16.953Z,98126.91
2023-02-15T04:47:43.459Z,98120.03
2023-02-15T04:50:10.381Z,98123.97
2023-02-15T04:52:37.149Z,98119.47
2023-02-15T04:55:03.767Z,98121.09
2023-02-15T04:57:30.175Z,98115.09
2023-02-15T04:59:56.566Z,98123.28
2023-02-15T05:02:23.046Z,98118.91
2023-02-15T05:04:49.451Z,98104.59
2023-02-15T05:07:15.865Z,98119.69
2023-02-15T05:09:43.333Z,98114.19
2023-02-15T05:12:09.757Z,98111.69
2023-02-15T05:14:36.136Z,98118.13
2023-02-15T05:17:04.143Z,98120.84
2023-02-15T05:19:30.554Z,98123.16
2023-02-15T05:21:58.018Z,98120.81
2023-02-15T05:24:43.386Z,98119.59
2023-02-15T05:27:31.116Z,98117.72
2023-02-15T05:29:57.680Z,98112.06
2023-02-15T05:32:24.378Z,98102.31
2023-02-15T05:34:50.889Z,98112.47
2023-02-15T05:37:23.115Z,98105.41
2023-02-15T05:39:51.556Z,98099.06
2023-02-15T05:42:17.939Z,98111.47
2023-02-15T05:44:44.439Z,98109.97
2023-02-15T05:47:10.895Z,98116.75
2023-02-15T05:49:37.364Z,98111.81
2023-02-15T05:52:04.494Z,98118.84
2023-02-15T05:54:33.084Z,98111.72
2023-02-15T05:56:59.468Z,98121.22
2023-02-15T05:59:26.024Z,98121.22
2023-02-15T06:01:52.487Z,98130.41
2023-02-15T06:04:18.838Z,98123.00
2023-02-15T06:06:46.245Z,98125.63
2023-02-15T06:09:13.716Z,98126.25
2023-02-15T06:11:40.144Z,98130.28
2023-02-15T06:14:07.510Z,98127.88
2023-02-15T06:16:35.894Z,98131.06
2023-02-15T06:19:04.056Z,98134.53
2023-02-15T06:21:31.640Z,98137.03
2023-02-15T06:23:58.483Z,98142.81
2023-02-15T06:26:24.829Z,98140.38
2023-02-15T06:28:54.423Z,98144.88
2023-02-15T06:31:20.983Z,98143.47
2023-02-15T06:33:47.614Z,98141.94
2023-02-15T06:36:14.039Z,98138.59
2023-02-15T06:38:40.586Z,98142.31
2023-02-15T06:41:07.137Z,98144.16
2023-02-15T06:43:34.733Z,98145.16
2023-02-15T06:46:02.096Z,98149.53
2023-02-15T06:48:28.631Z,98140.81
2023-02-15T06:50:54.994Z,98140.81
2023-02-15T06:53:21.382Z,98138.72
2023-02-15T06:55:47.917Z,98147.00
2023-02-15T06:58:14.444Z,98141.22
2023-02-15T07:00:40.797Z,98150.66
2023-02-15T07:03:08.276Z,98146.72
2023-02-15T07:05:35.236Z,98153.50
2023-02-15T07:08:02.056Z,98147.59
2023-02-15T07:10:28.890Z,98145.97
2023-02-15T07:12:55.346Z,98146.19
2023-02-15T07:15:22.034Z,98141.28
2023-02-15T07:17:49.197Z,98137.13
2023-02-15T07:20:19.554Z,98131.69
2023-02-15T07:22:46.996Z,98137.03
2023-02-15T07:25:14.571Z,98127.66
2023-02-15T07:27:41.597Z,98124.59
2023-02-15T07:30:11.312Z,98129.31
2023-02-15T07:32:57.881Z,98123.94
2023-02-15T07:35:24.569Z,98112.13
2023-02-15T07:37:50.930Z,98122.19
2023-02-15T07:40:17.583Z,98108.50
2023-02-15T07:42:44.028Z,98111.47
2023-02-15T07:45:10.459Z,98106.03
2023-02-15T07:47:36.917Z,98112.06
2023-02-15T07:50:03.411Z,98113.13
2023-02-15T07:52:30.028Z,98117.72
2023-02-15T07:54:56.395Z,98111.94
2023-02-15T07:57:22.822Z,98119.03
2023-02-15T07:59:49.179Z,98115.00
2023-02-15T08:02:17.551Z,98120.16
2023-02-15T08:04:44.745Z,98111.06
2023-02-15T08:07:11.106Z,98116.13
2023-02-15T08:09:37.567Z,98118.44
2023-02-15T08:12:05.112Z,98122.34
2023-02-15T08:14:33.160Z,98116.31
2023-02-15T08:17:03.321Z,98124.19
2023-02-15T08:19:32.590Z,98121.13
2023-02-15T08:22:01.386Z,98118.28
2023-02-15T08:24:30.919Z,98124.50
2023-02-15T08:26:58.085Z,98130.97
2023-02-15T08:29:27.468Z,98121.00
2023-02-15T08:32:03.192Z,98122.22
2023-02-15T08:34:32.418Z,98121.25
2023-02-15T08:36:58.810Z,98120.81
2023-02-15T08:39:25.345Z,98113.16
2023-02-15T08:41:51.790Z,98110.00
2023-02-15T08:44:20.126Z,98118.31
2023-02-15T08:46:48.708Z,98117.44
2023-02-15T08:49:20.581Z,98117.75
2023-02-15T08:51:48.243Z,98123.03
2023-02-15T08:54:17.530Z,98123.03
2023-02-15T08:56:45.552Z,98127.72
2023-02-15T08:59:15.750Z,98117.44
2023-02-15T09:01:42.201Z,98116.38
2023-02-15T09:04:09.966Z,98122.25
2023-02-15T09:06:38.413Z,98115.03
2023-02-15T09:09:04.853Z,98123.31
2023-02-15T09:11:35.069Z,98120.69
2023-02-15T09:14:08.100Z,98122.56
2023-02-15T09:16:36.871Z,98123.78
2023-02-15T09:19:05.621Z,98128.03
2023-02-15T09:21:32.844Z,98125.28
2023-02-15T09:24:01.927Z,98113.53
2023-02-15T09:26:30.766Z,98123.47
2023-02-15T09:29:00.884Z,98109.91
2023-02-15T09:31:29.774Z,98110.13
2023-02-15T09:33:56.821Z,98111.97
2023-02-15T09:36:25.878Z,98115.91
2023-02-15T09:39:20.350Z,98123.31
2023-02-15T09:42:13.001Z,98127.28
2023-02-15T09:45:12.966Z,98121.50
2023-02-15T09:48:09.355Z,98123.56
2023-02-15T09:50:54.198Z,98125.53
2023-02-15T09:53:42.330Z,98125.28
2023-02-15T09:56:38.367Z,98131.44
2023-02-15T09:59:25.994Z,98129.00
2023-02-15T10:02:29.737Z,98128.50
2023-02-15T10:05:17.104Z,98126.50
2023-02-15T10:08:25.347Z,98123.69
2023-02-15T10:11:40.130Z,98122.25
2023-02-15T10:14:25.200Z,98123.69
2023-02-15T10:17:36.040Z,98124.69
2023-02-15T10:20:20.033Z,98124.13
2023-02-15T10:23:14.153Z,98123.50
2023-02-15T10:25:49.738Z,98122.63
2023-02-15T10:28:19.729Z,98120.31
2023-02-15T10:30:52.335Z,98112.13
2023-02-15T10:33:26.986Z,98111.38
2023-02-15T10:36:36.215Z,98108.84
2023-02-15T10:39:13.478Z,98101.19
2023-02-15T10:41:51.358Z,98098.44
2023-02-15T10:44:38.459Z,98096.25
2023-02-15T10:47:37.449Z,98100.19
2023-02-15T10:50:22.065Z,98092.31
2023-02-15T10:53:10.238Z,98100.06
2023-02-15T10:56:02.129Z,98093.50
2023-02-15T10:58:37.097Z,98082.91
2023-02-15T11:01:26.481Z,98084.75
2023-02-15T11:04:17.752Z,98086.16
2023-02-15T11:06:52.121Z,98081.44
2023-02-15T11:09:22.138Z,98075.56
2023-02-15T11:11:53.594Z,98076.19
2023-02-15T11:14:38.601Z,98087.34
2023-02-15T11:17:13.833Z,98070.94
2023-02-15T11:19:50.472Z,98063.50
2023-02-15T11:22:19.510Z,98070.28
2023-02-15T11:24:47.575Z,98065.81
2023-02-15T11:27:13.962Z,98061.38
2023-02-15T11:29:55.936Z,98051.13
2023-02-15T11:32:33.492Z,98057.50
2023-02-15T11:35:12.553Z,98049.50
2023-02-15T11:37:49.551Z,98043.00
2023-02-15T11:40:25.946Z,98041.03
2023-02-15T11:42:58.459Z,98039.38
2023-02-15T11:45:33.196Z,98028.22
2023-02-15T11:48:00.849Z,98033.56
2023-02-15T11:50:30.415Z,98040.00
2023-02-15T11:53:07.516Z,98030.22
2023-02-15T11:55:35.977Z,98024.31
2023-02-15T11:58:10.665Z,98017.13
2023-02-15T12:00:51.151Z,98012.88
2023-02-15T12:03:29.201Z,98014.53
2023-02-15T12:06:03.609Z,98024.13
2023-02-15T12:08:39.799Z,98018.00
2023-02-15T12:11:23.343Z,98013.34
2023-02-15T12:14:03.325Z,98011.63
2023-02-15T12:16:35.286Z,98009.69
2023-02-15T12:19:03.275Z,98001.19
2023-02-15T12:21:34.034Z,98001.94
2023-02-15T12:24:24.078Z,97989.66
2023-02-15T12:27:18.320Z,97989.75
2023-02-15T12:29:52.892Z,97995.28
2023-02-15T12:32:34.329Z,97987.19
2023-02-15T12:35:15.800Z,97980.09
2023-02-15T12:37:54.689Z,97985.97
2023-02-15T12:40:31.386Z,97987.66
2023-02-15T12:42:59.161Z,97985.97
2023-02-15T12:45:31.043Z,97986.38
2023-02-15T12:48:17.636Z,97989.06
2023-02-15T12:50:46.337Z,97984.63
2023-02-15T12:53:24.336Z,97983.16
2023-02-15T12:56:03.770Z,97980.75
2023-02-15T12:58:32.548Z,97978.25
2023-02-15T13:01:20.384Z,97973.63
2023-02-15T13:03:56.041Z,97969.00
2023-02-15T13:06:23.225Z,97958.63
2023-02-15T13:08:55.517Z,97958.22
2023-02-15T13:11:34.971Z,97958.34
2023-02-15T13:14:04.435Z,97949.81
2023-02-15T13:16:37.834Z,97952.72
2023-02-15T13:19:11.299Z,97950.13
2023-02-15T13:21:41.077Z,97949.53
2023-02-15T13:24:19.367Z,97942.84
2023-02-15T13:26:48.197Z,97940.94
2023-02-15T13:29:36.822Z,97944.63
2023-02-15T13:32:21.882Z,97948.06
2023-02-15T13:34:48.348Z,97950.88
2023-02-15T13:37:21.756Z,97947.59
2023-02-15T13:40:19.774Z,97956.81
2023-02-15T13:42:50.091Z,97951.75
2023-02-15T13:45:31.717Z,97950.69
2023-02-15T13:48:29.391Z,97950.22
2023-02-15T13:51:22.047Z,97948.00
2023-02-15T13:54:21.441Z,97946.03
2023-02-15T13:57:15.118Z,97941.00
2023-02-15T13:59:57.075Z,97940.94
2023-02-15T14:03:04.797Z,97926.47
2023-02-15T14:05:52.698Z,97926.38
2023-02-15T14:08:25.073Z,97928.72
2023-02-15T14:11:05.668Z,97926.22
2023-02-15T14:13:49.576Z,97927.66
2023-02-15T14:17:07.192Z,97926.09
2023-02-15T14:19:46.587Z,97926.28
2023-02-15T14:22:22.662Z,97931.31
2023-02-15T14:25:18.253Z,97928.81
2023-02-15T14:27:57.353Z,97933.84
2023-02-15T14:30:30.564Z,97924.53
2023-02-15T14:33:05.588Z,97934.13
2023-02-15T14:35:32.401Z,97928.59
2023-02-15T14:38:27.181Z,97936.75
2023-02-15T14:41:10.342Z,97926.38
2023-02-15T14:44:08.238Z,97923.44
2023-02-15T14:46:42.820Z,97928.59
2023-02-15T14:49:15.094Z,97927.06
2023-02-15T14:51:43.675Z,97930.63
2023-02-15T14:54:22.435Z,97927.66
2023-02-15T14:57:10.937Z,97935.41
2023-02-15T14:59:58.399Z,97934.13
2023-02-15T15:02:32.670Z,97943.81
2023-02-15T15:05:17.810Z,97939.53
2023-02-15T15:07:52.556Z,97929.28
2023-02-15T15:10:21.590Z,97930.34
2023-02-15T15:12:52.039Z,97919.28
2023-02-15T15:15:21.558Z,97914.84
2023-02-15T15:18:05.124Z,97915.59
2023-02-15T15:20:42.766Z,97912.13
2023-02-15T15:23:17.408Z,97917.16
2023-02-15T15:25:45.698Z,97915.13
2023-02-15T15:28:34.122Z,97895.81
2023-02-15T15:31:15.722Z,97918.13
2023-02-15T15:33:51.814Z,97911.03
2023-02-15T15:36:46.302Z,97921.09
2023-02-15T15:39:21.717Z,97926.91
2023-02-15T15:42:03.298Z,97919.72
2023-02-15T15:44:48.238Z,97928.72
2023-02-15T15:47:33.629Z,97926.38
2023-02-15T15:50:00.680Z,97925.50
2023-02-15T15:52:29.564Z,97926.50
2023-02-15T15:54:58.815Z,97921.66
2023-02-15T15:57:30.023Z,97918.94
2023-02-15T16:00:01.307Z,97920.88
2023-02-15T16:02:29.153Z,97906.25
2023-02-15T16:04:55.750Z,97917.72
2023-02-15T16:07:27.011Z,97911.22
2023-02-15T16:10:24.181Z,97920.41
2023-02-15T16:12:51.811Z,97911.16
2023-02-15T16:15:36.721Z,97916.94
2023-02-15T16:18:04.302Z,97917.13
2023-02-15T16:20:40.665Z,97910.59
2023-02-15T16:23:35.055Z,97903.69
2023-02-15T16:26:12.222Z,97899.66
2023-02-15T16:28:39.707Z,97902.91
2023-02-15T16:31:15.138Z,97899.34
2023-02-15T16:33:44.003Z,97911.81
2023-02-15T16:36:27.731Z,97918.94
2023-02-15T16:38:54.054Z,97909.88
2023-02-15T16:41:28.892Z,97913.16
2023-02-15T16:43:59.265Z,97908.88
2023-02-15T16:46:30.839Z,97915.84
2023-02-15T16:49:03.164Z,97919.06
2023-02-15T16:51:32.818Z,97916.38
2023-02-15T16:54:07.164Z,97906.88
2023-02-15T16:56:34.162Z,97921.47
2023-02-15T16:59:02.101Z,97934.25
2023-02-15T17:01:33.719Z,97932.50
2023-02-15T17:04:23.049Z,97930.88
2023-02-15T17:07:18.404Z,97925.53
2023-02-15T17:09:52.894Z,97928.06
2023-02-15T17:12:46.008Z,97928.06
2023-02-15T17:15:29.006Z,97926.38
2023-02-15T17:18:14.101Z,97926.84
2023-02-15T17:20:45.382Z,97934.31
2023-02-15T17:23:27.143Z,97946.00
2023-02-15T17:25:53.953Z,97932.44
2023-02-15T17:28:25.321Z,97921.97
2023-02-15T17:30:54.569Z,97942.63
2023-02-15T17:33:48.012Z,97949.94
2023-02-15T17:36:23.727Z,97945.59
2023-02-15T17:39:23.113Z,97946.34
2023-02-15T17:41:53.817Z,97942.66
2023-02-15T17:44:20.322Z,97950.31
2023-02-15T17:46:46.777Z,97952.06
2023-02-15T17:49:24.453Z,97948.88
2023-02-15T17:51:50.981Z,97950.63
2023-02-15T17:54:35.607Z,97949.75
2023-02-15T17:57:05.769Z,97950.31
2023-02-15T17:59:32.207Z,97956.28
2023-02-15T18:02:17.275Z,97946.69
2023-02-15T18:05:02.160Z,97955.41
2023-02-15T18:07:48.032Z,97945.75
2023-02-15T18:10:37.839Z,97951.06
2023-02-15T18:13:04.839Z,97944.63
2023-02-15T18:15:31.412Z,97944.22
2023-02-15T18:17:57.923Z,97950.03
2023-02-15T18:20:34.791Z,97957.19
2023-02-15T18:23:02.111Z,97950.13
2023-02-15T18:25:29.031Z,97957.78
2023-02-15T18:27:55.606Z,97959.19
2023-02-15T18:30:26.202Z,97965.94
2023-02-15T18:32:56.516Z,97963.97
2023-02-15T18:35:34.625Z,97963.78
2023-02-15T18:38:01.880Z,97962.59
2023-02-15T18:40:29.349Z,97970.91
2023-02-15T18:42:57.103Z,97973.41
2023-02-15T18:45:28.551Z,97960.84
2023-02-15T18:47:56.047Z,97969.47
2023-02-15T18:50:24.354Z,97965.19
2023-02-15T18:52:51.753Z,97964.31
2023-02-15T18:55:27.694Z,97969.47
2023-02-15T18:57:56.538Z,97973.50
2023-02-15T19:00:26.045Z,97963.44
2023-02-15T19:02:53.924Z,97960.84
2023-02-15T19:05:22.496Z,97970.34
2023-02-15T19:07:50.481Z,97972.84
2023-02-15T19:10:28.738Z,97974.94
2023-02-15T19:12:57.437Z,97977.56
2023-02-15T19:15:26.824Z,97981.59
2023-02-15T19:17:54.745Z,97976.06
2023-02-15T19:20:26.823Z,97978.66
2023-02-15T19:22:56.380Z,97984.56
2023-02-15T19:25:28.633Z,97977.91
2023-02-15T19:27:56.228Z,97974.00
2023-02-15T19:30:27.799Z,97975.28
2023-02-15T19:32:54.358Z,97965.78
2023-02-15T19:35:24.087Z,97959.44
2023-02-15T19:37:53.293Z,97957.31
2023-02-15T19:40:22.595Z,97954.88
2023-02-15T19:42:49.713Z,97952.03
2023-02-15T19:45:25.194Z,97952.59
2023-02-15T19:47:53.811Z,97956.94
2023-02-15T19:50:28.519Z,97958.56
2023-02-15T19:52:55.425Z,97959.44
2023-02-15T19:55:32.779Z,97961.00
2023-02-15T19:58:00.949Z,97959.91
2023-02-15T20:00:33.518Z,97949.97
2023-02-15T20:03:00.622Z,97948.22
2023-02-15T20:05:28.893Z,97950.59
2023-02-15T20:07:56.511Z,97942.97
2023-02-15T20:10:27.035Z,97942.41
2023-02-15T20:12:55.043Z,97937.97
2023-02-15T20:15:37.689Z,97947.44
2023-02-15T20:18:04.974Z,97945.50
2023-02-15T20:20:53.238Z,97950.53
2023-02-15T20:23:27.001Z,97945.56
2023-02-15T20:25:58.140Z,97947.13
2023-02-15T20:28:28.415Z,97936.31
2023-02-15T20:30:55.380Z,97940.66
2023-02-15T20:33:22.729Z,97942.41
2023-02-15T20:35:50.286Z,97943.75
2023-02-15T20:38:30.876Z,97939.72
2023-02-15T20:41:18.522Z,97942.31
2023-02-15T20:43:47.012Z,97942.97
2023-02-15T20:46:13.651Z,97942.09
2023-02-15T20:48:40.340Z,97935.78
2023-02-15T20:51:17.359Z,97943.19
2023-02-15T20:53:44.715Z,97935.22
2023-02-15T20:56:23.616Z,97946.28
2023-02-15T20:58:51.242Z,97948.91
2023-02-15T21:01:19.865Z,97951.84
2023-02-15T21:03:47.122Z,97939.06
2023-02-15T21:06:16.118Z,97943.53
2023-02-15T21:08:42.804Z,97942.69
2023-02-15T21:11:21.047Z,97946.38
2023-02-15T21:13:50.122Z,97942.88
2023-02-15T21:16:20.711Z,97943.53
2023-02-15T21:18:48.245Z,97943.44
2023-02-15T21:21:23.379Z,97941.00
2023-02-15T21:23:51.988Z,97933.72
2023-02-15T21:26:21.580Z,97927.03
2023-02-15T21:28:50.032Z,97927.81
2023-02-15T21:31:25.345Z,97923.66
2023-02-15T21:33:53.349Z,97930.97
2023-02-15T21:36:23.349Z,97935.22
2023-02-15T21:38:50.795Z,97926.16
2023-02-15T21:41:39.458Z,97924.72
2023-02-15T21:44:40.582Z,97928.13
2023-02-15T21:47:36.598Z,97922.91
2023-02-15T21:50:26.273Z,97922.59
2023-02-15T21:52:53.098Z,97916.56
2023-02-15T21:55:19.711Z,97922.03
2023-02-15T21:57:46.347Z,97917.56
2023-02-15T22:00:21.212Z,97916.00
2023-02-15T22:02:51.269Z,97919.28
2023-02-15T22:05:21.339Z,97917.66
2023-02-15T22:07:47.977Z,97916.69
2023-02-15T22:10:15.791Z,97918.22
2023-02-15T22:12:44.066Z,97924.09
2023-02-15T22:15:23.344Z,97910.22
2023-02-15T22:17:51.280Z,97920.50
2023-02-15T22:20:20.791Z,97920.28
2023-02-15T22:22:48.343Z,97921.59
2023-02-15T22:25:17.445Z,97898.81
2023-02-15T22:27:49.046Z,97916.56
2023-02-15T22:30:34.099Z,97924.22
2023-02-15T22:33:04.708Z,97903.91
2023-02-15T22:35:36.723Z,97914.63
2023-02-15T22:38:03.165Z,97908.41
2023-02-15T22:40:33.012Z,97906.78
2023-02-15T22:43:03.855Z,97914.72
2023-02-15T22:45:32.313Z,97920.16
2023-02-15T22:48:00.453Z,97919.09
2023-02-15T22:50:32.850Z,97916.47
2023-02-15T22:53:01.020Z,97908.16
2023-02-15T22:55:30.700Z,97903.59
2023-02-15T22:57:57.831Z,97912.88
2023-02-15T23:00:28.168Z,97916.69
2023-02-15T23:02:54.954Z,97914.72
2023-02-15T23:05:25.701Z,97916.56
2023-02-15T23:07:52.395Z,97913.75
2023-02-15T23:10:23.848Z,97912.31
2023-02-15T23:13:11.999Z,97916.13
2023-02-15T23:15:50.199Z,97916.03
2023-02-15T23:18:24.413Z,97917.78
2023-02-15T23:20:54.041Z,97917.56
2023-02-15T23:23:30.297Z,97903.59
2023-02-15T23:26:04.523Z,97915.06
2023-02-15T23:28:36.304Z,97917.56
2023-02-15T23:31:03.195Z,97922.47
2023-02-15T23:33:34.181Z,97924.66
2023-02-15T23:36:00.714Z,97918.44
2023-02-15T23:38:30.312Z,97924.56
2023-02-15T23:41:19.575Z,97920.53
2023-02-15T23:43:49.709Z,97908.72
2023-02-15T23:46:43.011Z,97919.97
2023-02-15T23:49:19.595Z,97923.34
2023-02-15T23:51:51.121Z,97918.09
2023-02-15T23:54:19.539Z,97911.25
2023-02-15T23:56:48.690Z,97905.78
2023-02-15T23:59:26.973Z,97906.53
